createdAt,value
2022-09-09T00:01:32.716Z,101049.59
2022-09-09T00:04:40.417Z,101050.31
2022-09-09T00:07:45.773Z,101043.69
2022-09-09T00:10:52.383Z,101048.72
2022-09-09T00:13:58.071Z,101040.22
2022-09-09T00:17:05.222Z,101042.88
2022-09-09T00:20:11.123Z,101037.53
2022-09-09T00:23:17.010Z,101025.47
2022-09-09T00:26:24.329Z,101026.44
2022-09-09T00:29:31.551Z,101021.81
2022-09-09T00:32:37.801Z,101018.03
2022-09-09T00:35:43.449Z,101011.59
2022-09-09T00:38:48.711Z,101014.63
2022-09-09T00:41:54.927Z,101013.47
2022-09-09T00:45:00.677Z,101011.69
2022-09-09T00:48:06.584Z,101004.50
2022-09-09T00:51:12.541Z,101002.22
2022-09-09T00:54:18.553Z,100993.72
2022-09-09T00:57:25.073Z,100991.25
2022-09-09T01:00:31.313Z,100996.41
2022-09-09T01:03:37.433Z,100988.38
2022-09-09T01:06:43.921Z,100977.84
2022-09-09T01:09:52.101Z,100970.19
2022-09-09T01:12:58.115Z,100970.38
2022-09-09T01:16:04.426Z,100976.56
2022-09-09T01:19:13.623Z,100974.53
2022-09-09T01:22:18.980Z,100973.97
2022-09-09T01:25:26.616Z,100967.84
2022-09-09T01:28:33.024Z,100971.81
2022-09-09T01:31:39.007Z,100978.47
2022-09-09T01:34:44.758Z,100970.44
2022-09-09T01:37:50.153Z,100972.09
2022-09-09T01:40:55.555Z,100970.06
2022-09-09T01:44:01.832Z,100978.34
2022-09-09T01:47:07.689Z,100972.59
2022-09-09T01:50:13.542Z,100966.03
2022-09-09T01:53:19.245Z,100965.66
2022-09-09T01:56:25.023Z,100970.44
2022-09-09T01:59:35.249Z,100967.38
2022-09-09T02:02:42.227Z,100963.94
2022-09-09T02:05:47.715Z,100958.00
2022-09-09T02:08:53.646Z,100954.09
2022-09-09T02:12:00.169Z,100953.09
2022-09-09T02:15:07.333Z,100948.75
2022-09-09T02:18:13.452Z,100938.69
2022-09-09T02:21:19.465Z,100943.44
2022-09-09T02:24:25.239Z,100936.03
2022-09-09T02:27:31.232Z,100934.00
2022-09-09T02:30:36.982Z,100940.19
2022-09-09T02:33:42.488Z,100937.97
2022-09-09T02:36:48.039Z,100933.25
2022-09-09T02:39:53.796Z,100934.50
2022-09-09T02:43:01.147Z,100933.28
2022-09-09T02:46:06.899Z,100935.38
2022-09-09T02:49:12.479Z,100919.75
2022-09-09T02:52:17.963Z,100918.50
2022-09-09T02:55:23.736Z,100928.00
2022-09-09T02:58:29.429Z,100919.78
2022-09-09T03:01:36.840Z,100918.94
2022-09-09T03:04:42.797Z,100912.75
2022-09-09T03:08:05.332Z,100901.22
2022-09-09T03:11:11.407Z,100915.44
2022-09-09T03:14:16.655Z,100906.38
2022-09-09T03:17:22.609Z,100899.16
2022-09-09T03:20:35.749Z,100904.53
2022-09-09T03:23:41.489Z,100900.81
2022-09-09T03:26:48.133Z,100901.84
2022-09-09T03:29:54.045Z,100903.06
2022-09-09T03:33:01.929Z,100898.16
2022-09-09T03:36:08.832Z,100899.81
2022-09-09T03:39:16.810Z,100890.09
2022-09-09T03:42:22.123Z,100898.97
2022-09-09T03:45:27.538Z,100892.59
2022-09-09T03:48:33.830Z,100891.75
2022-09-09T03:51:39.467Z,100892.22
2022-09-09T03:54:45.468Z,100884.16
2022-09-09T03:57:51.341Z,100887.03
2022-09-09T04:00:57.498Z,100879.00
2022-09-09T04:04:03.776Z,100866.63
2022-09-09T04:07:09.531Z,100874.03
2022-09-09T04:10:16.802Z,100870.50
2022-09-09T04:13:22.626Z,100879.38
2022-09-09T04:16:28.118Z,100877.72
2022-09-09T04:19:35.016Z,100875.25
2022-09-09T04:22:42.335Z,100876.44
2022-09-09T04:26:03.468Z,100881.81
2022-09-09T04:29:08.839Z,100880.59
2022-09-09T04:32:14.290Z,100874.03
2022-09-09T04:35:21.198Z,100869.88
2022-09-09T04:38:27.230Z,100876.44
2022-09-09T04:41:33.541Z,100869.44
2022-09-09T04:44:39.438Z,100868.41
2022-09-09T04:47:45.082Z,100869.88
2022-09-09T04:50:51.065Z,100866.38
2022-09-09T04:53:56.456Z,100869.69
2022-09-09T04:57:05.180Z,100871.97
2022-09-09T05:00:11.143Z,100875.94
2022-09-09T05:03:17.111Z,100865.81
2022-09-09T05:06:23.544Z,100872.00
2022-09-09T05:09:29.165Z,100866.91
2022-09-09T05:12:35.056Z,100865.50
2022-09-09T05:15:40.604Z,100873.56
2022-09-09T05:18:47.096Z,100854.84
2022-09-09T05:21:52.765Z,100862.69
2022-09-09T05:24:59.797Z,100867.69
2022-09-09T05:28:09.485Z,100866.06
2022-09-09T05:31:15.227Z,100865.06
2022-09-09T05:34:21.853Z,100861.19
2022-09-09T05:37:27.532Z,100865.53
2022-09-09T05:40:32.886Z,100857.50
2022-09-09T05:43:38.454Z,100851.50
2022-09-09T05:46:43.963Z,100859.59
2022-09-09T05:49:50.673Z,100858.97
2022-09-09T05:52:57.145Z,100860.44
2022-09-09T05:56:04.470Z,100855.09
2022-09-09T05:59:12.541Z,100853.22
2022-09-09T06:02:18.452Z,100854.88
2022-09-09T06:05:25.860Z,100856.09
2022-09-09T06:08:31.680Z,100857.16
2022-09-09T06:11:37.328Z,100855.72
2022-09-09T06:14:46.282Z,100843.31
2022-09-09T06:17:51.817Z,100832.91
2022-09-09T06:20:57.258Z,100837.44
2022-09-09T06:24:03.929Z,100840.72
2022-09-09T06:27:10.110Z,100845.66
2022-09-09T06:30:18.322Z,100846.63
2022-09-09T06:33:23.498Z,100841.84
2022-09-09T06:36:28.889Z,100847.59
2022-09-09T06:39:34.857Z,100835.09
2022-09-09T06:42:41.139Z,100837.97
2022-09-09T06:45:53.157Z,100827.75
2022-09-09T06:49:00.798Z,100833.13
2022-09-09T06:52:06.537Z,100836.63
2022-09-09T06:55:13.212Z,100832.84
2022-09-09T06:58:19.383Z,100834.81
2022-09-09T07:01:26.013Z,100836.44
2022-09-09T07:04:33.698Z,100840.91
2022-09-09T07:07:39.293Z,100844.91
2022-09-09T07:10:45.778Z,100844.88
2022-09-09T07:13:51.667Z,100838.47
2022-09-09T07:17:01.889Z,100855.22
2022-09-09T07:20:08.113Z,100840.81
2022-09-09T07:23:13.616Z,100847.19
2022-09-09T07:26:20.794Z,100845.00
2022-09-09T07:29:26.460Z,100841.31
2022-09-09T07:32:31.922Z,100852.44
2022-09-09T07:35:38.094Z,100840.00
2022-09-09T07:38:44.642Z,100837.19
2022-09-09T07:41:50.621Z,100842.59
2022-09-09T07:44:56.217Z,100843.56
2022-09-09T07:48:02.145Z,100847.09
2022-09-09T07:51:08.317Z,100843.91
2022-09-09T07:54:13.901Z,100833.94
2022-09-09T07:57:19.913Z,100831.78
2022-09-09T08:00:25.889Z,100825.28
2022-09-09T08:03:31.772Z,100834.13
2022-09-09T08:06:37.284Z,100823.09
2022-09-09T08:09:43.506Z,100836.06
2022-09-09T08:13:07.964Z,100834.31
2022-09-09T08:16:15.524Z,100838.50
2022-09-09T08:19:21.354Z,100831.16
2022-09-09T08:22:28.890Z,100825.47
2022-09-09T08:25:35.731Z,100833.13
2022-09-09T08:28:42.293Z,100824.31
2022-09-09T08:31:47.923Z,100820.03
2022-09-09T08:34:54.952Z,100827.31
2022-09-09T08:38:00.846Z,100818.16
2022-09-09T08:41:07.552Z,100809.03
2022-09-09T08:44:15.858Z,100815.38
2022-09-09T08:47:22.024Z,100816.91
2022-09-09T08:50:27.757Z,100807.97
2022-09-09T08:53:33.452Z,100816.81
2022-09-09T08:56:38.696Z,100823.50
2022-09-09T08:59:44.467Z,100813.97
2022-09-09T09:02:50.438Z,100809.50
2022-09-09T09:05:56.454Z,100810.78
2022-09-09T09:09:02.020Z,100811.63
2022-09-09T09:12:07.468Z,100805.13
2022-09-09T09:15:14.545Z,100794.69
2022-09-09T09:18:21.469Z,100795.00
2022-09-09T09:21:27.390Z,100791.78
2022-09-09T09:24:33.507Z,100805.78
2022-09-09T09:27:39.068Z,100800.22
2022-09-09T09:30:44.817Z,100796.56
2022-09-09T09:33:54.277Z,100801.50
2022-09-09T09:36:59.784Z,100799.19
2022-09-09T09:40:05.181Z,100804.03
2022-09-09T09:43:11.365Z,100807.09
2022-09-09T09:46:18.848Z,100800.56
2022-09-09T09:49:25.067Z,100795.94
2022-09-09T09:52:30.536Z,100788.97
2022-09-09T09:59:01.845Z,100793.94
2022-09-09T10:02:07.626Z,100793.78
2022-09-09T10:05:13.637Z,100802.50
2022-09-09T10:08:20.299Z,100778.44
2022-09-09T10:11:26.850Z,100792.56
2022-09-09T10:14:33.217Z,100789.84
2022-09-09T10:17:39.442Z,100789.31
2022-09-09T10:20:45.958Z,100792.38
2022-09-09T10:23:52.265Z,100788.44
2022-09-09T10:26:59.240Z,100785.47
2022-09-09T10:30:09.814Z,100779.94
2022-09-09T10:33:17.021Z,100784.72
2022-09-09T10:36:23.106Z,100797.03
2022-09-09T10:39:28.692Z,100797.22
2022-09-09T10:42:35.726Z,100796.31
2022-09-09T10:45:41.330Z,100774.38
2022-09-09T10:48:52.053Z,100788.25
2022-09-09T10:51:58.136Z,100776.75
2022-09-09T10:55:05.371Z,100774.94
2022-09-09T10:58:12.246Z,100789.34
2022-09-09T11:01:18.138Z,100781.78
2022-09-09T11:04:24.067Z,100784.38
2022-09-09T11:07:29.762Z,100784.44
2022-09-09T11:10:35.773Z,100778.50
2022-09-09T11:13:53.613Z,100781.44
2022-09-09T11:16:59.723Z,100776.28
2022-09-09T11:20:05.852Z,100784.00
2022-09-09T11:23:11.680Z,100783.47
2022-09-09T11:26:17.515Z,100782.41
2022-09-09T11:29:24.230Z,100769.09
2022-09-09T11:32:34.727Z,100781.94
2022-09-09T11:35:41.680Z,100784.38
2022-09-09T11:38:51.860Z,100784.91
2022-09-09T11:41:58.369Z,100779.09
2022-09-09T11:45:04.325Z,100783.63
2022-09-09T11:48:09.771Z,100787.19
2022-09-09T11:51:17.278Z,100774.50
2022-09-09T11:54:23.076Z,100776.38
2022-09-09T11:57:30.114Z,100778.78
2022-09-09T12:00:53.836Z,100778.66
2022-09-09T12:03:59.443Z,100782.16
2022-09-09T12:07:25.649Z,100779.19
2022-09-09T12:10:32.894Z,100785.78
2022-09-09T12:13:38.838Z,100774.78
2022-09-09T12:16:56.919Z,100783.09
2022-09-09T12:20:05.625Z,100791.94
2022-09-09T12:23:11.406Z,100783.09
2022-09-09T12:26:16.841Z,100774.38
2022-09-09T12:29:22.616Z,100769.56
2022-09-09T12:32:29.929Z,100762.91
2022-09-09T12:35:35.579Z,100772.88
2022-09-09T12:38:42.137Z,100763.66
2022-09-09T12:41:49.069Z,100760.13
2022-09-09T12:44:55.036Z,100767.97
2022-09-09T12:48:01.558Z,100776.81
2022-09-09T12:51:06.999Z,100762.38
2022-09-09T12:54:13.275Z,100759.50
2022-09-09T12:57:19.793Z,100759.13
2022-09-09T13:00:25.728Z,100750.38
2022-09-09T13:03:31.321Z,100753.44
2022-09-09T13:06:36.763Z,100761.88
2022-09-09T13:09:42.833Z,100759.34
2022-09-09T13:12:49.441Z,100761.41
2022-09-09T13:15:55.619Z,100764.00
2022-09-09T13:19:00.938Z,100767.53
2022-09-09T13:22:06.465Z,100766.56
2022-09-09T13:25:12.889Z,100763.84
2022-09-09T13:28:18.968Z,100764.84
2022-09-09T13:31:24.718Z,100751.84
2022-09-09T13:34:30.377Z,100747.13
2022-09-09T13:37:36.158Z,100743.50
2022-09-09T13:40:42.461Z,100748.78
2022-09-09T13:43:48.493Z,100747.59
2022-09-09T13:46:54.469Z,100743.28
2022-09-09T13:50:01.796Z,100749.88
2022-09-09T13:53:07.208Z,100748.63
2022-09-09T13:56:13.259Z,100749.78
2022-09-09T13:59:19.472Z,100752.94
2022-09-09T14:02:26.488Z,100748.00
2022-09-09T14:05:32.371Z,100753.38
2022-09-09T14:08:38.573Z,100747.31
2022-09-09T14:11:45.578Z,100746.34
2022-09-09T14:14:52.761Z,100741.38
2022-09-09T14:17:59.983Z,100745.47
2022-09-09T14:21:12.459Z,100748.06
2022-09-09T14:24:18.617Z,100743.84
2022-09-09T14:27:27.127Z,100743.38
2022-09-09T14:30:33.787Z,100745.16
2022-09-09T14:33:39.698Z,100748.88
2022-09-09T14:36:52.376Z,100733.94
2022-09-09T14:39:58.098Z,100748.66
2022-09-09T14:43:03.999Z,100744.72
2022-09-09T14:46:10.148Z,100739.94
2022-09-09T14:49:15.556Z,100746.38
2022-09-09T14:52:49.970Z,100745.16
2022-09-09T14:55:55.281Z,100743.22
2022-09-09T14:59:02.282Z,100748.78
2022-09-09T15:02:07.990Z,100744.09
2022-09-09T15:05:13.699Z,100745.91
2022-09-09T15:11:39.207Z,100749.97
2022-09-09T15:14:45.207Z,100750.34
2022-09-09T15:17:52.566Z,100745.44
2022-09-09T15:20:58.301Z,100759.47
2022-09-09T15:24:11.406Z,100742.06
2022-09-09T15:27:17.483Z,100753.53
2022-09-09T15:30:23.494Z,100746.03
2022-09-09T15:33:30.071Z,100746.97
2022-09-09T15:36:35.819Z,100744.06
2022-09-09T15:43:00.828Z,100747.38
2022-09-09T15:46:06.778Z,100749.59
2022-09-09T15:49:19.573Z,100743.69
2022-09-09T15:52:25.134Z,100744.31
2022-09-09T15:55:48.175Z,100751.72
2022-09-09T15:58:57.257Z,100745.63
2022-09-09T16:02:04.045Z,100755.28
2022-09-09T16:05:09.808Z,100753.78
2022-09-09T16:08:15.395Z,100754.13
2022-09-09T16:11:21.978Z,100757.09
2022-09-09T16:14:27.960Z,100757.31
2022-09-09T16:17:38.817Z,100756.13
2022-09-09T16:20:45.014Z,100762.59
2022-09-09T16:23:51.138Z,100760.72
2022-09-09T16:26:56.985Z,100755.06
2022-09-09T16:30:02.418Z,100760.72
2022-09-09T16:33:15.509Z,100756.59
2022-09-09T16:36:20.953Z,100756.22
2022-09-09T16:39:28.547Z,100760.84
2022-09-09T16:42:37.546Z,100760.84
2022-09-09T16:45:45.868Z,100766.94
2022-09-09T16:48:52.189Z,100761.41
2022-09-09T16:51:58.084Z,100763.78
2022-09-09T16:55:04.150Z,100760.50
2022-09-09T16:58:10.360Z,100760.94
2022-09-09T17:01:15.974Z,100760.81
2022-09-09T17:04:23.058Z,100758.00
2022-09-09T17:07:29.414Z,100760.34
2022-09-09T17:10:37.695Z,100765.38
2022-09-09T17:13:42.985Z,100768.53
2022-09-09T17:16:48.990Z,100762.78
2022-09-09T17:19:55.185Z,100759.94
2022-09-09T17:23:01.659Z,100764.38
2022-09-09T17:26:08.611Z,100764.28
2022-09-09T17:29:14.486Z,100766.00
2022-09-09T17:32:20.498Z,100767.06
2022-09-09T17:35:27.253Z,100773.50
2022-09-09T17:38:32.641Z,100775.38
2022-09-09T17:41:38.608Z,100782.69
2022-09-09T17:44:44.006Z,100777.84
2022-09-09T17:47:50.747Z,100778.91
2022-09-09T17:50:56.401Z,100780.22
2022-09-09T17:54:01.643Z,100795.13
2022-09-09T17:57:07.694Z,100797.00
2022-09-09T18:00:13.535Z,100788.09
2022-09-09T18:03:19.031Z,100804.75
2022-09-09T18:06:25.665Z,100792.53
2022-09-09T18:09:33.230Z,100797.09
2022-09-09T18:12:39.458Z,100797.56
2022-09-09T18:15:49.638Z,100795.69
2022-09-09T18:18:56.058Z,100800.47
2022-09-09T18:22:08.456Z,100800.47
2022-09-09T18:25:14.995Z,100799.66
2022-09-09T18:28:25.227Z,100796.63
2022-09-09T18:31:30.784Z,100801.19
2022-09-09T18:34:36.658Z,100799.38
2022-09-09T18:37:42.856Z,100800.44
2022-09-09T18:40:48.781Z,100798.44
2022-09-09T18:43:54.541Z,100795.16
2022-09-09T18:47:00.386Z,100793.94
2022-09-09T18:50:06.111Z,100796.88
2022-09-09T18:53:12.142Z,100794.00
2022-09-09T18:56:18.243Z,100792.63
2022-09-09T18:59:24.051Z,100792.63
2022-09-09T19:02:36.441Z,100799.91
2022-09-09T19:05:42.663Z,100792.84
2022-09-09T19:08:52.230Z,100787.91
2022-09-09T19:12:01.076Z,100792.25
2022-09-09T19:15:06.895Z,100789.53
2022-09-09T19:18:16.065Z,100793.06
2022-09-09T19:21:22.809Z,100795.75
2022-09-09T19:24:28.673Z,100792.84
2022-09-09T19:27:34.939Z,100795.53
2022-09-09T19:30:40.556Z,100794.13
2022-09-09T19:33:47.253Z,100794.56
2022-09-09T19:36:52.871Z,100791.47
2022-09-09T19:39:59.049Z,100792.19
2022-09-09T19:43:04.942Z,100784.31
2022-09-09T19:46:11.694Z,100789.94
2022-09-09T19:49:24.294Z,100789.56
2022-09-09T19:52:31.194Z,100795.66
2022-09-09T19:55:37.273Z,100790.69
2022-09-09T19:58:45.213Z,100796.91
2022-09-09T20:01:51.374Z,100791.97
2022-09-09T20:05:01.173Z,100793.00
2022-09-09T20:08:06.998Z,100796.75
2022-09-09T20:11:13.544Z,100798.63
2022-09-09T20:14:20.088Z,100798.28
2022-09-09T20:17:26.054Z,100800.38
2022-09-09T20:20:31.730Z,100797.84
2022-09-09T20:23:37.500Z,100797.84
2022-09-09T20:26:44.670Z,100801.59
2022-09-09T20:29:53.201Z,100798.91
2022-09-09T20:32:59.154Z,100796.22
2022-09-09T20:36:05.435Z,100796.00
2022-09-09T20:39:11.911Z,100798.50
2022-09-09T20:42:21.162Z,100799.31
2022-09-09T20:45:26.961Z,100794.75
2022-09-09T20:48:33.257Z,100796.63
2022-09-09T20:51:39.228Z,100799.31
2022-09-09T20:54:45.361Z,100805.28
2022-09-09T20:57:51.760Z,100793.69
2022-09-09T21:01:00.608Z,100800.50
2022-09-09T21:04:07.094Z,100794.06
2022-09-09T21:07:12.905Z,100797.56
2022-09-09T21:10:20.389Z,100797.34
2022-09-09T21:13:26.932Z,100799.22
2022-09-09T21:16:32.824Z,100804.84
2022-09-09T21:19:38.428Z,100805.44
2022-09-09T21:22:44.317Z,100806.06
2022-09-09T21:25:49.793Z,100798.78
2022-09-09T21:28:56.021Z,100811.22
2022-09-09T21:32:03.781Z,100806.66
2022-09-09T21:35:09.285Z,100799.38
2022-09-09T21:38:17.405Z,100809.97
2022-09-09T21:41:22.812Z,100796.69
2022-09-09T21:44:30.093Z,100801.72
2022-09-09T21:47:36.482Z,100806.50
2022-09-09T21:50:42.429Z,100807.75
2022-09-09T21:53:48.109Z,100799.13
2022-09-09T21:56:54.451Z,100811.78
2022-09-09T22:00:01.956Z,100809.53
2022-09-09T22:03:08.627Z,100807.28
2022-09-09T22:06:13.982Z,100800.91
2022-09-09T22:09:20.459Z,100807.78
2022-09-09T22:12:25.818Z,100798.88
2022-09-09T22:15:32.674Z,100798.13
2022-09-09T22:18:38.339Z,100799.41
2022-09-09T22:21:44.109Z,100793.63
2022-09-09T22:24:49.604Z,100792.88
2022-09-09T22:27:55.561Z,100796.63
2022-09-09T22:31:02.243Z,100790.84
2022-09-09T22:34:08.611Z,100803.91
2022-09-09T22:37:14.641Z,100797.13
2022-09-09T22:40:20.133Z,100800.47
2022-09-09T22:43:25.835Z,100805.47
2022-09-09T22:46:32.056Z,100801.34
2022-09-09T22:49:37.670Z,100804.25
2022-09-09T22:52:44.374Z,100801.81
2022-09-09T22:55:50.262Z,100802.03
2022-09-09T22:58:55.953Z,100802.69
2022-09-09T23:02:01.710Z,100809.72
2022-09-09T23:05:08.925Z,100805.59
2022-09-09T23:08:21.437Z,100806.25
2022-09-09T23:11:28.119Z,100803.78
2022-09-09T23:14:33.934Z,100805.25
2022-09-09T23:17:40.192Z,100804.84
2022-09-09T23:20:47.823Z,100802.59
2022-09-09T23:23:55.539Z,100798.75
2022-09-09T23:27:01.446Z,100804.81
2022-09-09T23:30:08.148Z,100797.78
2022-09-09T23:33:15.538Z,100792.84
2022-09-09T23:36:22.595Z,100798.66
2022-09-09T23:39:38.929Z,100795.56
2022-09-09T23:42:47.613Z,100794.31
2022-09-09T23:45:53.137Z,100796.19
2022-09-09T23:49:08.433Z,100786.94
2022-09-09T23:52:14.834Z,100791.06
2022-09-09T23:55:43.264Z,100778.66
2022-09-09T23:58:49.101Z,100774.75
